createdAt,value
2019-05-03T07:14:02.461Z,204.00
2019-05-03T07:15:02.364Z,252.00
2019-05-03T07:16:04.529Z,284.00
2019-05-03T07:17:02.354Z,316.00
2019-05-03T07:18:02.374Z,364.00
2019-05-03T07:19:04.298Z,372.00
2019-05-03T07:20:04.550Z,388.00
2019-05-03T07:21:02.300Z,376.00
2019-05-03T07:22:02.288Z,348.00
2019-05-03T07:23:04.275Z,340.00
2019-05-03T07:24:02.268Z,332.00
2019-05-03T07:25:02.259Z,328.00
2019-05-03T07:26:02.249Z,336.00
2019-05-03T07:27:02.248Z,348.00
2019-05-03T07:28:04.311Z,388.00
2019-05-03T07:29:02.208Z,396.00
2019-05-03T07:30:02.204Z,404.00
2019-05-03T07:31:02.186Z,448.00
2019-05-03T07:32:02.176Z,392.00
2019-05-03T07:33:04.837Z,404.00
2019-05-03T07:34:02.162Z,372.00
2019-05-03T07:35:04.409Z,336.00
2019-05-03T07:36:02.146Z,328.00
2019-05-03T07:37:02.125Z,252.00
2019-05-03T07:38:03.114Z,320.00
2019-05-03T07:39:02.108Z,332.00
2019-05-03T07:40:02.118Z,300.00
2019-05-03T07:41:02.075Z,236.00
2019-05-03T07:42:02.073Z,272.00
2019-05-03T07:43:02.093Z,324.00
2019-05-03T07:44:02.056Z,300.00
2019-05-03T07:45:02.035Z,276.00
2019-05-03T07:46:02.022Z,332.00
2019-05-03T07:47:02.024Z,332.00
2019-05-03T07:48:02.035Z,304.00
2019-05-03T07:49:01.991Z,300.00
2019-05-03T07:50:01.983Z,308.00
2019-05-03T07:51:01.980Z,296.00
2019-05-03T07:52:01.961Z,292.00
2019-05-03T07:53:01.977Z,272.00
2019-05-03T07:54:01.980Z,268.00
2019-05-03T07:55:01.919Z,248.00
2019-05-03T07:56:01.909Z,260.00
2019-05-03T07:57:01.897Z,296.00
2019-05-03T07:58:01.888Z,296.00
2019-05-03T07:59:05.631Z,284.00
2019-05-03T08:00:01.878Z,284.00
2019-05-03T08:01:08.723Z,264.00
2019-05-03T08:02:02.883Z,248.00
2019-05-03T08:03:01.855Z,240.00
2019-05-03T08:04:01.855Z,272.00
2019-05-03T08:05:01.817Z,320.00
2019-05-03T08:06:01.817Z,296.00
2019-05-03T08:07:01.794Z,288.00
2019-05-03T08:08:01.775Z,284.00
2019-05-03T08:09:01.809Z,264.00
2019-05-03T08:10:01.791Z,268.00
2019-05-03T08:11:01.757Z,240.00
2019-05-03T08:12:01.737Z,220.00
2019-05-03T08:13:01.729Z,224.00
2019-05-03T08:14:01.741Z,240.00
2019-05-03T08:15:01.724Z,256.00
2019-05-03T08:16:01.705Z,264.00
2019-05-03T08:17:01.683Z,268.00
2019-05-03T08:18:01.674Z,292.00
2019-05-03T08:19:01.702Z,328.00
2019-05-03T08:20:01.648Z,392.00
2019-05-03T08:21:01.636Z,452.00
2019-05-03T08:22:01.628Z,456.00
2019-05-03T08:23:01.611Z,496.00
2019-05-03T08:24:01.680Z,532.00
2019-05-03T08:25:01.596Z,568.00
2019-05-03T08:26:01.589Z,632.00
2019-05-03T08:27:01.579Z,660.00
2019-05-03T08:28:01.571Z,692.00
2019-05-03T08:29:13.348Z,708.00
2019-05-03T08:30:04.370Z,684.00
2019-05-03T08:31:01.539Z,676.00
2019-05-03T08:32:01.530Z,672.00
2019-05-03T08:33:01.508Z,644.00
2019-05-03T08:34:01.490Z,652.00
2019-05-03T08:35:01.509Z,652.00
2019-05-03T08:36:01.467Z,656.00
2019-05-03T08:37:01.459Z,656.00
2019-05-03T08:38:01.448Z,616.00
2019-05-03T08:39:01.441Z,608.00
2019-05-03T08:40:01.447Z,580.00
2019-05-03T08:41:01.427Z,500.00
2019-05-03T08:42:01.406Z,484.00
2019-05-03T08:43:01.401Z,528.00
2019-05-03T08:44:01.385Z,552.00
2019-05-03T08:45:04.544Z,568.00
2019-05-03T08:46:01.364Z,656.00
2019-05-03T08:47:01.358Z,632.00
2019-05-03T08:48:01.364Z,532.00
2019-05-03T08:49:01.323Z,508.00
2019-05-03T08:50:01.339Z,544.00
2019-05-03T08:51:01.303Z,592.00
2019-05-03T08:52:01.305Z,556.00
2019-05-03T08:53:01.299Z,540.00
2019-05-03T08:54:01.292Z,624.00
2019-05-03T08:55:05.128Z,684.00
2019-05-03T08:56:01.254Z,656.00
2019-05-03T08:57:01.294Z,596.00
2019-05-03T08:58:01.232Z,636.00
2019-05-03T08:59:01.220Z,608.00
2019-05-03T09:00:05.149Z,588.00
2019-05-03T09:01:02.606Z,528.00
2019-05-03T09:02:03.696Z,524.00
2019-05-03T09:03:02.171Z,516.00
2019-05-03T09:04:01.159Z,584.00
2019-05-03T09:05:01.148Z,596.00
2019-05-03T09:06:01.166Z,580.00
2019-05-03T09:07:01.129Z,564.00
2019-05-03T09:08:01.118Z,616.00
2019-05-03T09:09:01.111Z,632.00
2019-05-03T09:10:01.120Z,648.00
2019-05-03T09:11:01.107Z,672.00
2019-05-03T09:12:01.078Z,740.00
2019-05-03T09:13:03.458Z,772.00
2019-05-03T09:14:01.063Z,752.00
2019-05-03T09:15:01.045Z,768.00
2019-05-03T09:16:01.074Z,812.00
2019-05-03T09:17:01.039Z,788.00
2019-05-03T09:18:01.015Z,780.00
2019-05-03T09:19:01.009Z,776.00
2019-05-03T09:20:00.993Z,740.00
2019-05-03T09:21:01.030Z,700.00
2019-05-03T09:22:00.976Z,672.00
2019-05-03T09:23:00.964Z,712.00
2019-05-03T09:24:00.945Z,680.00
2019-05-03T09:25:00.944Z,592.00
2019-05-03T09:26:00.958Z,532.00
2019-05-03T09:27:00.912Z,452.00
2019-05-03T09:28:00.903Z,468.00
2019-05-03T09:29:00.892Z,568.00
2019-05-03T09:30:00.882Z,524.00
2019-05-03T09:31:00.901Z,500.00
2019-05-03T09:32:00.874Z,564.00
2019-05-03T09:33:00.853Z,720.00
2019-05-03T09:34:00.850Z,760.00
2019-05-03T09:35:00.835Z,744.00
2019-05-03T09:36:00.840Z,712.00
2019-05-03T09:37:00.829Z,680.00
2019-05-03T09:38:00.800Z,628.00
2019-05-03T09:39:00.779Z,592.00
2019-05-03T09:40:00.779Z,576.00
2019-05-03T09:41:00.772Z,496.00
2019-05-03T09:42:01.189Z,492.00
2019-05-03T09:43:00.748Z,612.00
2019-05-03T09:44:00.732Z,436.00
2019-05-03T09:45:00.719Z,428.00
2019-05-03T09:46:00.706Z,512.00
2019-05-03T09:47:00.717Z,588.00
2019-05-03T09:48:00.717Z,664.00
2019-05-03T09:49:12.623Z,732.00
2019-05-03T09:50:02.257Z,920.00
2019-05-03T09:51:00.674Z,884.00
2019-05-03T09:52:00.755Z,812.00
2019-05-03T09:53:00.630Z,708.00
2019-05-03T09:54:00.625Z,804.00
2019-05-03T09:55:00.633Z,860.00
2019-05-03T09:56:00.594Z,736.00
2019-05-03T09:57:00.615Z,596.00
2019-05-03T09:58:00.575Z,560.00
2019-05-03T09:59:00.578Z,136.00
2019-05-03T10:00:00.583Z,632.00
2019-05-03T10:01:00.564Z,664.00
2019-05-03T10:02:00.582Z,792.00
2019-05-03T10:03:00.526Z,912.00
2019-05-03T10:04:00.524Z,632.00
2019-05-03T10:05:00.532Z,516.00
2019-05-03T10:06:00.493Z,472.00
2019-05-03T10:07:04.060Z,416.00
2019-05-03T10:08:00.473Z,300.00
2019-05-03T10:09:00.460Z,280.00
2019-05-03T10:10:00.441Z,256.00
2019-05-03T10:11:00.438Z,260.00
2019-05-03T10:12:00.431Z,248.00
2019-05-03T10:13:13.222Z,232.00
2019-05-03T10:14:01.402Z,216.00
2019-05-03T10:15:00.397Z,192.00
2019-05-03T10:16:00.397Z,188.00
2019-05-03T10:17:00.369Z,164.00
2019-05-03T10:18:00.380Z,148.00
2019-05-03T10:19:00.366Z,140.00
2019-05-03T10:20:01.187Z,140.00
2019-05-03T10:21:00.346Z,132.00
2019-05-03T10:22:00.318Z,128.00
2019-05-03T10:23:00.348Z,124.00
2019-05-03T10:24:00.307Z,120.00
2019-05-03T10:25:00.297Z,124.00
2019-05-03T10:26:00.275Z,136.00
2019-05-03T10:27:00.267Z,152.00
2019-05-03T10:28:00.286Z,196.00
2019-05-03T10:29:00.247Z,248.00
2019-05-03T10:30:10.496Z,308.00
2019-05-03T10:31:01.217Z,380.00
2019-05-03T10:32:00.205Z,424.00
2019-05-03T10:33:00.215Z,500.00
2019-05-03T10:34:00.186Z,528.00
2019-05-03T10:35:00.177Z,588.00
2019-05-03T10:36:00.168Z,704.00
2019-05-03T10:37:00.154Z,712.00
2019-05-03T10:38:00.177Z,600.00
2019-05-03T10:39:00.135Z,516.00
2019-05-03T10:40:00.114Z,420.00
2019-05-03T10:41:00.103Z,468.00
2019-05-03T10:42:00.094Z,412.00
2019-05-03T10:43:00.112Z,312.00
2019-05-03T10:44:00.082Z,268.00
2019-05-03T10:45:00.062Z,352.00
2019-05-03T10:46:00.052Z,432.00
2019-05-03T10:47:00.043Z,616.00
2019-05-03T10:48:00.080Z,728.00
2019-05-03T10:49:00.043Z,996.00
2019-05-03T10:50:00.012Z,860.00
2019-05-03T10:50:59.990Z,620.00
2019-05-03T10:51:59.980Z,528.00
2019-05-03T10:52:59.983Z,520.00
2019-05-03T10:54:00.006Z,604.00
2019-05-03T10:54:59.948Z,656.00
2019-05-03T10:55:59.950Z,748.00
2019-05-03T10:56:59.929Z,720.00
2019-05-03T10:57:59.929Z,576.00
2019-05-03T10:58:59.947Z,488.00
2019-05-03T10:59:59.916Z,408.00
2019-05-03T11:00:59.887Z,344.00
2019-05-03T11:01:59.880Z,336.00
2019-05-03T11:02:59.868Z,320.00
2019-05-03T11:03:59.894Z,324.00
2019-05-03T11:04:59.846Z,348.00
2019-05-03T11:05:59.846Z,372.00
2019-05-03T11:06:59.828Z,404.00
2019-05-03T11:07:59.822Z,432.00
2019-05-03T11:08:59.837Z,400.00
2019-05-03T11:09:59.784Z,392.00
2019-05-03T11:10:59.806Z,504.00
2019-05-03T11:11:59.775Z,560.00
2019-05-03T11:12:59.754Z,560.00
2019-05-03T11:13:59.773Z,432.00
2019-05-03T11:14:59.734Z,496.00
2019-05-03T11:15:59.723Z,652.00
2019-05-03T11:17:00.643Z,652.00
2019-05-03T11:17:59.707Z,640.00
2019-05-03T11:18:59.712Z,664.00
2019-05-03T11:19:59.701Z,600.00
2019-05-03T11:20:59.672Z,588.00
2019-05-03T11:21:59.665Z,776.00
2019-05-03T11:22:59.652Z,856.00
2019-05-03T11:23:59.652Z,856.00
2019-05-03T11:24:59.663Z,640.00
2019-05-03T11:25:59.635Z,504.00
2019-05-03T11:27:00.205Z,416.00
2019-05-03T11:27:59.610Z,476.00
2019-05-03T11:29:00.616Z,540.00
2019-05-03T11:29:59.628Z,424.00
2019-05-03T11:31:02.198Z,348.00
2019-05-03T11:31:59.539Z,360.00
2019-05-03T11:32:59.564Z,372.00
2019-05-03T11:33:59.518Z,348.00
2019-05-03T11:34:59.547Z,392.00
2019-05-03T11:35:59.513Z,504.00
2019-05-03T11:36:59.497Z,632.00
2019-05-03T11:37:59.479Z,536.00
2019-05-03T11:38:59.492Z,532.00
2019-05-03T11:39:59.486Z,560.00
2019-05-03T11:40:59.446Z,704.00
2019-05-03T11:41:59.436Z,612.00
2019-05-03T11:42:59.432Z,684.00
2019-05-03T11:43:59.437Z,628.00
2019-05-03T11:44:59.438Z,584.00
2019-05-03T11:45:59.425Z,492.00
2019-05-03T11:46:59.394Z,432.00
2019-05-03T11:47:59.381Z,504.00
2019-05-03T11:48:59.394Z,464.00
2019-05-03T11:49:59.365Z,464.00
2019-05-03T11:50:59.373Z,292.00
2019-05-03T11:51:59.361Z,376.00
2019-05-03T11:52:59.322Z,336.00
2019-05-03T11:53:59.315Z,492.00
2019-05-03T11:54:59.344Z,528.00
2019-05-03T11:55:59.292Z,392.00
2019-05-03T11:56:59.291Z,448.00
2019-05-03T11:57:59.264Z,520.00
2019-05-03T11:58:59.278Z,364.00
2019-05-03T11:59:59.284Z,400.00
2019-05-03T12:01:11.776Z,464.00
2019-05-03T12:02:00.222Z,556.00
2019-05-03T12:02:59.212Z,756.00
2019-05-03T12:03:59.190Z,820.00
2019-05-03T12:04:59.208Z,804.00
2019-05-03T12:05:59.199Z,668.00
2019-05-03T12:06:59.160Z,644.00
2019-05-03T12:07:59.158Z,716.00
2019-05-03T12:08:59.157Z,864.00
2019-05-03T12:09:59.141Z,840.00
2019-05-03T12:11:01.595Z,720.00
2019-05-03T12:11:59.119Z,676.00
2019-05-03T12:12:59.100Z,628.00
2019-05-03T12:14:04.397Z,664.00
2019-05-03T12:15:00.077Z,756.00
2019-05-03T12:15:59.172Z,884.00
2019-05-03T12:17:17.488Z,968.00
2019-05-03T12:18:00.365Z,928.00
2019-05-03T12:18:59.088Z,880.00
2019-05-03T12:20:00.329Z,576.00
2019-05-03T12:21:00.216Z,468.00
2019-05-03T12:21:59.680Z,412.00
2019-05-03T12:22:59.416Z,320.00
2019-05-03T12:23:59.400Z,284.00
2019-05-03T12:24:59.523Z,280.00
2019-05-03T12:25:59.655Z,264.00
2019-05-03T12:26:58.973Z,256.00
2019-05-03T12:27:58.937Z,268.00
2019-05-03T12:28:58.935Z,232.00
2019-05-03T12:29:58.923Z,204.00
2019-05-03T12:30:58.933Z,204.00
2019-05-03T12:31:58.887Z,216.00
2019-05-03T12:32:58.885Z,244.00
2019-05-03T12:33:58.877Z,308.00
2019-05-03T12:34:58.855Z,436.00
2019-05-03T12:35:58.841Z,516.00
2019-05-03T12:36:58.865Z,612.00
2019-05-03T12:37:58.842Z,772.00
2019-05-03T12:38:58.815Z,816.00
2019-05-03T12:39:58.810Z,896.00
2019-05-03T12:40:58.802Z,872.00
2019-05-03T12:41:58.794Z,776.00
2019-05-03T12:42:58.805Z,736.00
2019-05-03T12:43:58.764Z,688.00
2019-05-03T12:44:58.758Z,708.00
2019-05-03T12:45:58.738Z,664.00
2019-05-03T12:46:58.755Z,528.00
2019-05-03T12:47:58.733Z,448.00
2019-05-03T12:48:58.707Z,504.00
2019-05-03T12:49:58.695Z,568.00
2019-05-03T12:50:58.958Z,628.00
2019-05-03T12:51:58.710Z,656.00
2019-05-03T12:52:58.657Z,888.00
2019-05-03T12:53:58.654Z,868.00
2019-05-03T12:54:58.641Z,828.00
2019-05-03T12:55:58.626Z,1008.00
2019-05-03T12:56:58.626Z,868.00
2019-05-03T12:57:58.652Z,904.00
2019-05-03T12:58:58.610Z,1048.00
2019-05-03T12:59:58.583Z,964.00
2019-05-03T13:00:58.574Z,996.00
2019-05-03T13:01:58.559Z,928.00
2019-05-03T13:02:58.567Z,852.00
2019-05-03T13:03:58.535Z,520.00
2019-05-03T13:04:58.541Z,428.00
2019-05-03T13:05:58.513Z,400.00
2019-05-03T13:06:58.508Z,404.00
2019-05-03T13:07:58.522Z,504.00
2019-05-03T13:08:58.503Z,592.00
2019-05-03T13:09:58.472Z,620.00
2019-05-03T13:10:58.452Z,700.00
2019-05-03T13:11:59.230Z,776.00
2019-05-03T13:12:58.471Z,796.00
2019-05-03T13:13:58.451Z,908.00
2019-05-03T13:14:58.433Z,868.00
2019-05-03T13:15:58.411Z,840.00
2019-05-03T13:16:58.410Z,792.00
2019-05-03T13:17:58.411Z,828.00
2019-05-03T13:18:58.378Z,1116.00
2019-05-03T13:19:58.355Z,920.00
2019-05-03T13:20:58.379Z,856.00
2019-05-03T13:21:58.349Z,920.00
2019-05-03T13:22:58.378Z,928.00
2019-05-03T13:23:58.319Z,912.00
2019-05-03T13:24:58.330Z,876.00
2019-05-03T13:25:58.315Z,876.00
2019-05-03T13:26:58.288Z,888.00
2019-05-03T13:27:58.275Z,912.00
2019-05-03T13:28:59.780Z,1028.00
2019-05-03T13:29:58.267Z,788.00
2019-05-03T13:30:58.250Z,720.00
2019-05-03T13:32:02.021Z,732.00
2019-05-03T13:32:58.228Z,756.00
2019-05-03T13:33:58.241Z,740.00
2019-05-03T13:34:58.207Z,708.00
2019-05-03T13:35:58.198Z,732.00
2019-05-03T13:36:58.186Z,800.00
2019-05-03T13:37:58.189Z,848.00
2019-05-03T13:39:11.340Z,908.00
2019-05-03T13:39:59.135Z,868.00
2019-05-03T13:40:58.125Z,1036.00
2019-05-03T13:41:58.133Z,788.00
2019-05-03T13:43:03.501Z,848.00
2019-05-03T13:43:59.132Z,824.00
2019-05-03T13:44:58.135Z,904.00
2019-05-03T13:45:58.075Z,960.00
2019-05-03T13:46:58.073Z,924.00
2019-05-03T13:47:58.054Z,856.00
2019-05-03T13:48:58.072Z,900.00
2019-05-03T13:49:58.053Z,1068.00
2019-05-03T13:50:58.022Z,984.00
2019-05-03T13:51:58.003Z,860.00
2019-05-03T13:52:58.012Z,1116.00
2019-05-03T13:53:58.037Z,1012.00
2019-05-03T13:54:57.998Z,1024.00
2019-05-03T13:55:57.980Z,932.00
2019-05-03T13:56:57.952Z,492.00
2019-05-03T13:57:57.942Z,408.00
2019-05-03T13:58:57.932Z,448.00
2019-05-03T13:59:57.949Z,524.00
2019-05-03T14:00:57.932Z,552.00
2019-05-03T14:02:11.485Z,576.00
2019-05-03T14:02:58.883Z,804.00
2019-05-03T14:03:57.877Z,552.00
2019-05-03T14:04:57.897Z,524.00
2019-05-03T14:05:57.858Z,476.00
2019-05-03T14:06:57.838Z,460.00
2019-05-03T14:07:57.827Z,456.00
2019-05-03T14:08:57.832Z,360.00
2019-05-03T14:09:57.824Z,292.00
2019-05-03T14:10:57.816Z,228.00
2019-05-03T14:11:57.803Z,200.00
2019-05-03T14:12:57.776Z,224.00
2019-05-03T14:13:57.766Z,264.00
2019-05-03T14:14:57.784Z,280.00
2019-05-03T14:15:57.753Z,340.00
2019-05-03T14:16:57.736Z,376.00
2019-05-03T14:17:57.732Z,368.00
2019-05-03T14:18:57.715Z,340.00
2019-05-03T14:19:57.721Z,316.00
2019-05-03T14:20:57.691Z,304.00
2019-05-03T14:21:57.692Z,320.00
2019-05-03T14:22:57.674Z,292.00
2019-05-03T14:23:57.672Z,272.00
2019-05-03T14:24:57.693Z,288.00
2019-05-03T14:25:57.633Z,332.00
2019-05-03T14:26:57.621Z,316.00
2019-05-03T14:27:59.694Z,268.00
2019-05-03T14:28:57.602Z,248.00
2019-05-03T14:29:57.601Z,260.00
2019-05-03T14:30:57.602Z,292.00
2019-05-03T14:31:57.570Z,324.00
2019-05-03T14:32:57.563Z,392.00
2019-05-03T14:33:57.542Z,464.00
2019-05-03T14:34:57.530Z,508.00
2019-05-03T14:35:57.548Z,616.00
2019-05-03T14:36:57.508Z,672.00
2019-05-03T14:37:57.509Z,576.00
2019-05-03T14:38:57.499Z,604.00
2019-05-03T14:39:57.497Z,928.00
2019-05-03T14:40:57.507Z,744.00
2019-05-03T14:41:57.457Z,484.00
2019-05-03T14:42:57.448Z,328.00
2019-05-03T14:43:57.431Z,312.00
2019-05-03T14:44:57.421Z,352.00
2019-05-03T14:45:57.457Z,400.00
2019-05-03T14:46:59.304Z,504.00
2019-05-03T14:47:57.676Z,772.00
2019-05-03T14:48:57.376Z,716.00
2019-05-03T14:49:57.367Z,788.00
2019-05-03T14:50:57.575Z,872.00
2019-05-03T14:51:57.369Z,524.00
2019-05-03T14:52:57.333Z,512.00
2019-05-03T14:53:57.324Z,604.00
2019-05-03T14:54:57.315Z,1144.00
2019-05-03T14:55:57.344Z,804.00
2019-05-03T14:56:57.293Z,1052.00
2019-05-03T14:57:57.295Z,1024.00
2019-05-03T14:58:57.272Z,752.00
2019-05-03T14:59:57.264Z,924.00
2019-05-03T15:00:57.281Z,1176.00
2019-05-03T15:01:57.250Z,948.00
2019-05-03T15:02:57.937Z,804.00
2019-05-03T15:03:57.231Z,968.00
2019-05-03T15:04:57.213Z,592.00
2019-05-03T15:05:58.467Z,600.00
2019-05-03T15:06:57.994Z,644.00
2019-05-03T15:07:57.170Z,628.00
2019-05-03T15:08:57.171Z,652.00
2019-05-03T15:09:57.154Z,608.00
2019-05-03T15:10:57.198Z,572.00
2019-05-03T15:11:57.153Z,572.00
2019-05-03T15:12:57.137Z,576.00
2019-05-03T15:13:57.116Z,528.00
2019-05-03T15:14:57.088Z,504.00
2019-05-03T15:15:57.079Z,544.00
2019-05-03T15:16:57.109Z,520.00
2019-05-03T15:17:57.067Z,524.00
2019-05-03T15:18:57.073Z,472.00
2019-05-03T15:19:57.050Z,436.00
2019-05-03T15:20:57.036Z,480.00
2019-05-03T15:21:57.046Z,492.00
2019-05-03T15:22:57.007Z,440.00
2019-05-03T15:23:57.015Z,444.00
2019-05-03T15:24:56.995Z,428.00
2019-05-03T15:25:56.984Z,432.00
2019-05-03T15:26:56.984Z,376.00
2019-05-03T15:27:56.973Z,372.00
2019-05-03T15:28:56.957Z,368.00
2019-05-03T15:29:56.939Z,392.00
2019-05-03T15:30:56.945Z,392.00
2019-05-03T15:31:56.956Z,384.00
2019-05-03T15:33:00.688Z,376.00
2019-05-03T15:33:56.899Z,436.00
2019-05-03T15:34:56.887Z,472.00
2019-05-03T15:35:56.873Z,456.00
2019-05-03T15:36:56.871Z,444.00
2019-05-03T15:37:56.887Z,428.00
2019-05-03T15:38:56.844Z,436.00
2019-05-03T15:39:56.873Z,448.00
2019-05-03T15:40:56.824Z,480.00
2019-05-03T15:41:56.802Z,508.00
2019-05-03T15:42:56.825Z,560.00
2019-05-03T15:43:56.806Z,628.00
2019-05-03T15:44:56.771Z,616.00
2019-05-03T15:45:56.761Z,632.00
2019-05-03T15:46:56.749Z,616.00
2019-05-03T15:47:56.800Z,688.00
2019-05-03T15:48:56.761Z,704.00
2019-05-03T15:49:56.720Z,660.00
2019-05-03T15:50:56.721Z,628.00
2019-05-03T15:51:56.707Z,632.00
